Terminal Aerodrome Forecast
Issued by NWS

Home | Current Version | Previous Version | Text Only | Print | Product List | Glossary On
Versions: 1 2 3 4 5 6 7 8 9 10 11 12 13 14
000
FTUS42 KMLB 220500
TAFFPR
TAF
KFPR 220531Z 2206/2306 08013G19KT P6SM VCSH OVC050
     FM221300 10013G22KT P6SM VCSH OVC030
     FM221800 10016G24KT P6SM -RA BKN025
     FM230200 11014G20KT 5SM -SHRA BR BKN015=

USA.gov is the U.S. government's official web portal to all federal, state and local government web resources and services.